WetterOnline ( http://www.wetteronline.ch )

Wetter aktuell Bremerhaven

Aktuelles Wetter: Bremerhaven (11m)

6-stündlich | Neueste Meldungen
Ortszeit Temperatur Wetter
So, 16.12. 13:00 0.1° C Schneegriesel
So, 16.12. 7:00 -0.8° C bedeckt
So, 16.12. 1:00 -0.3° C bewölkt
Sa, 15.12. 19:00 -0.0° C bedeckt
Sa, 15.12. 13:00 1.0° C bedeckt
Sa, 15.12. 7:00 0.1° C bedeckt
Sa, 15.12. 1:00 0.6° C bedeckt
Fr, 14.12. 19:00 1.6° C bedeckt
Ortszeit Temperatur Wetter
So, 16.12. 13:30 -0.1° C leichter Schneefall
So, 16.12. 13:10 -0.0° C leichter Schneefall
So, 16.12. 13:00 0.1° C Schneegriesel
So, 16.12. 12:50 0.1° C Schneegriesel
So, 16.12. 12:40 0.2° C bedeckt
So, 16.12. 12:30 0.1° C bedeckt
So, 16.12. 12:00 -0.0° C bedeckt
So, 16.12. 11:30 -0.0° C bedeckt
So, 16.12. 11:00 -0.0° C leichter Schneefall
So, 16.12. 10:30 -0.2° C bedeckt
Ortszeit Relative Feuchte Sichtweite
So, 16.12. 13:00 74% 10 km
So, 16.12. 7:00 79% 10 km
So, 16.12. 1:00 72% 10 km
Sa, 15.12. 19:00 66% 9 km
Sa, 15.12. 13:00 76% 10 km
Sa, 15.12. 7:00 81% 10 km
Sa, 15.12. 1:00 84% 10 km
Fr, 14.12. 19:00 76% 10 km
Ortszeit Relative Feuchte Sichtweite
So, 16.12. 13:30 78% 10 km
So, 16.12. 13:10 77% -
So, 16.12. 13:00 74% 10 km
So, 16.12. 12:50 74% -
So, 16.12. 12:40 73% -
So, 16.12. 12:30 73% 10 km
So, 16.12. 12:00 74% 10 km
So, 16.12. 11:30 75% 10 km
So, 16.12. 11:00 75% 10 km
So, 16.12. 10:30 76% 10 km
Ortszeit Niederschlagsmenge Niederschlagsart
So, 16.12. 13:00 0.1 l/m2 in 6 Std. Schnee
So, 16.12. 7:00 0.0 l/m2 in 12 Std. -
So, 16.12. 1:00 0.0 l/m2 in 6 Std. -
Sa, 15.12. 19:00 0.0 l/m2 in 12 Std. -
Sa, 15.12. 13:00 0.0 l/m2 in 6 Std. -
Sa, 15.12. 7:00 0.0 l/m2 in 12 Std. -
Sa, 15.12. 1:00 0.0 l/m2 in 6 Std. -
Fr, 14.12. 19:00 0.0 l/m2 in 12 Std. -
Ortszeit Niederschlagsmenge Niederschlagsart
So, 16.12. 13:30 0.1 l/m2 in 1 Std. -
So, 16.12. 13:10 keine Meldung -
So, 16.12. 13:00 0.1 l/m2 in 1 Std. Schnee
So, 16.12. 12:50 keine Meldung -
So, 16.12. 12:40 keine Meldung -
So, 16.12. 12:30 0.0 l/m2 in 1 Std. -
So, 16.12. 12:00 0.1 l/m2 in 1 Std. Schnee
So, 16.12. 11:30 0.1 l/m2 in 1 Std. gefrierender Regen
So, 16.12. 11:00 0.1 l/m2 in 1 Std. Schnee
So, 16.12. 10:30 0.0 l/m2 in 1 Std. -
Ortszeit Stärke Spitze Richtung
km/h Bft. km/h Grad Sektor
So, 16.12. 13:00 22 4 40 150° SO
So, 16.12. 7:00 22 4 50 130° SO
So, 16.12. 1:00 28 4 57 130° SO
Sa, 15.12. 19:00 22 4 40 130° SO
Sa, 15.12. 13:00 17 3 26 120° SO
Sa, 15.12. 7:00 13 3 19 100° O
Sa, 15.12. 1:00 11 2 18 100° O
Fr, 14.12. 19:00 11 2 22 80° O
Ortszeit Stärke Spitze Richtung
km/h Bft. km/h Grad Sektor
So, 16.12. 13:30 18 3 32 150° SO
So, 16.12. 13:10 22 4 - 150° SO
So, 16.12. 13:00 22 4 36 150° SO
So, 16.12. 12:50 22 4 - 150° SO
So, 16.12. 12:40 22 4 - 150° SO
So, 16.12. 12:30 15 3 30 140° SO
So, 16.12. 12:00 18 3 36 140° SO
So, 16.12. 11:30 18 3 36 130° SO
So, 16.12. 11:00 22 4 40 130° SO
So, 16.12. 10:30 20 4 39 130° SO
Ortszeit Untergrenze Bedeckung Gattung
total tief tief mittel hoch
So, 16.12. 13:00 960 m 7/8 8/8 - - -
So, 16.12. 7:00 4500 m 8/8 8/8 - - -
So, 16.12. 1:00 600 m 7/8 7/8 - - -
Sa, 15.12. 19:00 870 m 8/8 8/8 - - -
Sa, 15.12. 13:00 1140 m 8/8 8/8 - - -
Sa, 15.12. 7:00 1200 m 8/8 8/8 - - -
Sa, 15.12. 1:00 1380 m 8/8 8/8 - - -
Fr, 14.12. 19:00 1320 m 8/8 8/8 - - -
Ortszeit Bedeckungsgrad in Achtel und Wolkenuntergrenze
So, 16.12. 13:30 2(540m) 6(720m) 7(990m)
So, 16.12. 13:10 1(570m) 3(750m) 8(990m)
So, 16.12. 13:00 7(960m) 3(690m) 8(960m)
So, 16.12. 12:50 7(960m)
So, 16.12. 12:40 8(930m)
So, 16.12. 12:30 8(900m)
So, 16.12. 12:00 8(810m)
So, 16.12. 11:30 8(840m)
So, 16.12. 11:00 8(960m) 8(1800m)
So, 16.12. 10:30 5(990m) 7(2400m) 8(2700m)
Ortszeit Luftdruck NN (hPa) Tendenz (hPa in 3 Std.)
So, 16.12. 13:00 1012 - 1,0
So, 16.12. 7:00 1013 - 2,3
So, 16.12. 1:00 1018 - 2,9
Sa, 15.12. 19:00 1024 - 2,5
Sa, 15.12. 13:00 1028 - 1,1
Sa, 15.12. 7:00 1029 0,0
Sa, 15.12. 1:00 1028 - 0,2
Fr, 14.12. 19:00 1028 + 0,5
Ortszeit Luftdruck NN (hPa) Tendenz (hPa in 3 Std.)
So, 16.12. 13:30 1012 - 1,1
So, 16.12. 13:10 1012 keine Meldung
So, 16.12. 13:00 1012 - 1,0
So, 16.12. 12:50 1012 keine Meldung
So, 16.12. 12:40 1012 keine Meldung
So, 16.12. 12:30 1012 - 0,8
So, 16.12. 12:00 1012 - 0,5
So, 16.12. 11:30 1013 - 0,3
So, 16.12. 11:00 1013 - 0,3
So, 16.12. 10:30 1013 - 0,7
Ortszeit Schneehöhe (cm)
So, 16.12. 13:00 0
So, 16.12. 7:00 0
So, 16.12. 1:00 0
Sa, 15.12. 19:00 0
Sa, 15.12. 13:00 0
Sa, 15.12. 7:00 0
Sa, 15.12. 1:00 0
Fr, 14.12. 19:00 0
Ortszeit Schneehöhe (cm)
So, 16.12. 13:30 0
So, 16.12. 13:10 0
So, 16.12. 13:00 0
So, 16.12. 12:50 0
So, 16.12. 12:40 0
So, 16.12. 12:30 0
So, 16.12. 12:00 0
So, 16.12. 11:30 0
So, 16.12. 11:00 0
So, 16.12. 10:30 0
Link zu dieser Seite / Seite empfehlen

Das Wetter in ...